sensor_id;sensor_type;location;lat;lon;timestamp;pressure;altitude;pressure_sealevel;temperature;humidity
76762;BME280;65705;51.032;13.790;2023-09-07T00:01:30;101093.69;;;18.22;75.88
76762;BME280;65705;51.032;13.790;2023-09-07T00:03:56;101090.38;;;18.20;75.82
76762;BME280;65705;51.032;13.790;2023-09-07T00:06:22;101090.19;;;18.22;75.62
76762;BME280;65705;51.032;13.790;2023-09-07T00:08:48;101083.31;;;18.13;75.97
76762;BME280;65705;51.032;13.790;2023-09-07T00:11:13;101088.44;;;18.14;76.04
76762;BME280;65705;51.032;13.790;2023-09-07T00:13:39;101082.34;;;18.14;75.73
76762;BME280;65705;51.032;13.790;2023-09-07T00:16:05;101100.03;;;18.21;75.20
76762;BME280;65705;51.032;13.790;2023-09-07T00:18:32;101097.25;;;18.29;75.00
76762;BME280;65705;51.032;13.790;2023-09-07T00:21:01;101093.03;;;18.20;75.15
76762;BME280;65705;51.032;13.790;2023-09-07T00:23:27;101098.16;;;18.22;75.16
76762;BME280;65705;51.032;13.790;2023-09-07T00:25:52;101099.19;;;18.21;75.03
76762;BME280;65705;51.032;13.790;2023-09-07T00:28:18;101103.94;;;18.11;75.62
76762;BME280;65705;51.032;13.790;2023-09-07T00:30:44;101106.06;;;18.01;75.74
76762;BME280;65705;51.032;13.790;2023-09-07T00:33:10;101102.28;;;17.95;76.28
76762;BME280;65705;51.032;13.790;2023-09-07T00:35:36;101098.81;;;17.95;75.94
76762;BME280;65705;51.032;13.790;2023-09-07T00:38:02;101099.56;;;17.88;76.15
76762;BME280;65705;51.032;13.790;2023-09-07T00:40:28;101100.81;;;17.92;75.54
76762;BME280;65705;51.032;13.790;2023-09-07T00:42:54;101098.91;;;17.86;74.98
76762;BME280;65705;51.032;13.790;2023-09-07T00:45:20;101103.81;;;17.75;75.49
76762;BME280;65705;51.032;13.790;2023-09-07T00:47:45;101110.22;;;17.66;75.66
76762;BME280;65705;51.032;13.790;2023-09-07T00:50:11;101109.75;;;17.62;76.28
76762;BME280;65705;51.032;13.790;2023-09-07T00:52:44;101106.81;;;17.57;76.98
76762;BME280;65705;51.032;13.790;2023-09-07T00:55:11;101097.53;;;17.53;77.49
76762;BME280;65705;51.032;13.790;2023-09-07T00:57:38;101089.50;;;17.47;77.87
76762;BME280;65705;51.032;13.790;2023-09-07T01:00:05;101095.34;;;17.57;77.75
76762;BME280;65705;51.032;13.790;2023-09-07T01:02:33;101095.81;;;17.60;77.42
76762;BME280;65705;51.032;13.790;2023-09-07T01:04:59;101094.19;;;17.59;77.41
76762;BME280;65705;51.032;13.790;2023-09-07T01:07:34;101089.44;;;17.55;77.58
76762;BME280;65705;51.032;13.790;2023-09-07T01:10:01;101093.25;;;17.52;77.41
76762;BME280;65705;51.032;13.790;2023-09-07T01:12:28;101089.31;;;17.48;77.40
76762;BME280;65705;51.032;13.790;2023-09-07T01:14:54;101092.47;;;17.44;77.92
76762;BME280;65705;51.032;13.790;2023-09-07T01:17:20;101090.16;;;17.41;78.11
76762;BME280;65705;51.032;13.790;2023-09-07T01:19:52;101093.38;;;17.36;78.32
76762;BME280;65705;51.032;13.790;2023-09-07T01:22:19;101088.72;;;17.38;78.10
76762;BME280;65705;51.032;13.790;2023-09-07T01:24:49;101086.38;;;17.35;78.05
76762;BME280;65705;51.032;13.790;2023-09-07T01:27:16;101086.69;;;17.40;77.76
76762;BME280;65705;51.032;13.790;2023-09-07T01:29:41;101092.47;;;17.21;78.30
76762;BME280;65705;51.032;13.790;2023-09-07T01:32:07;101088.13;;;17.06;78.98
76762;BME280;65705;51.032;13.790;2023-09-07T01:34:36;101083.69;;;16.98;79.37
76762;BME280;65705;51.032;13.790;2023-09-07T01:37:01;101083.59;;;16.92;79.74
76762;BME280;65705;51.032;13.790;2023-09-07T01:39:27;101084.94;;;16.88;79.87
76762;BME280;65705;51.032;13.790;2023-09-07T01:41:53;101092.53;;;16.91;79.65
76762;BME280;65705;51.032;13.790;2023-09-07T01:44:19;101088.88;;;16.92;79.65
76762;BME280;65705;51.032;13.790;2023-09-07T01:46:45;101084.91;;;16.96;79.25
76762;BME280;65705;51.032;13.790;2023-09-07T01:49:10;101087.75;;;17.09;78.77
76762;BME280;65705;51.032;13.790;2023-09-07T01:51:36;101087.56;;;17.10;78.16
76762;BME280;65705;51.032;13.790;2023-09-07T01:54:02;101089.13;;;17.05;78.46
76762;BME280;65705;51.032;13.790;2023-09-07T01:56:29;101093.94;;;17.01;78.42
76762;BME280;65705;51.032;13.790;2023-09-07T01:58:55;101085.66;;;17.04;78.47
76762;BME280;65705;51.032;13.790;2023-09-07T02:03:46;101084.56;;;16.91;78.75
76762;BME280;65705;51.032;13.790;2023-09-07T02:06:12;101092.88;;;16.88;79.19
76762;BME280;65705;51.032;13.790;2023-09-07T02:08:38;101087.09;;;16.84;79.10
76762;BME280;65705;51.032;13.790;2023-09-07T02:11:05;101089.34;;;16.95;78.78
76762;BME280;65705;51.032;13.790;2023-09-07T02:13:31;101080.38;;;16.96;78.60
76762;BME280;65705;51.032;13.790;2023-09-07T02:15:57;101082.53;;;17.01;78.39
76762;BME280;65705;51.032;13.790;2023-09-07T02:18:22;101084.06;;;16.95;78.35
76762;BME280;65705;51.032;13.790;2023-09-07T02:20:48;101082.53;;;17.01;77.98
76762;BME280;65705;51.032;13.790;2023-09-07T02:23:14;101079.63;;;16.88;77.96
76762;BME280;65705;51.032;13.790;2023-09-07T02:25:40;101083.03;;;16.96;78.13
76762;BME280;65705;51.032;13.790;2023-09-07T02:28:06;101077.19;;;16.78;78.48
76762;BME280;65705;51.032;13.790;2023-09-07T02:30:32;101079.25;;;16.68;78.82
76762;BME280;65705;51.032;13.790;2023-09-07T02:32:58;101077.25;;;16.70;78.68
76762;BME280;65705;51.032;13.790;2023-09-07T02:35:25;101076.91;;;16.73;78.57
76762;BME280;65705;51.032;13.790;2023-09-07T02:37:51;101075.59;;;16.69;78.68
76762;BME280;65705;51.032;13.790;2023-09-07T02:40:18;101080.41;;;16.65;78.88
76762;BME280;65705;51.032;13.790;2023-09-07T02:42:44;101084.25;;;16.63;78.89
76762;BME280;65705;51.032;13.790;2023-09-07T02:45:11;101077.44;;;16.68;78.39
76762;BME280;65705;51.032;13.790;2023-09-07T02:47:39;101081.78;;;16.61;78.76
76762;BME280;65705;51.032;13.790;2023-09-07T02:50:05;101084.81;;;16.50;79.02
76762;BME280;65705;51.032;13.790;2023-09-07T02:52:31;101085.94;;;16.56;79.13
76762;BME280;65705;51.032;13.790;2023-09-07T02:54:56;101084.63;;;16.52;78.98
76762;BME280;65705;51.032;13.790;2023-09-07T02:57:23;101078.13;;;16.62;78.34
76762;BME280;65705;51.032;13.790;2023-09-07T02:59:49;101081.34;;;16.50;78.87
76762;BME280;65705;51.032;13.790;2023-09-07T03:02:14;101084.97;;;16.41;79.36
76762;BME280;65705;51.032;13.790;2023-09-07T03:04:40;101085.19;;;16.31;79.81
76762;BME280;65705;51.032;13.790;2023-09-07T03:07:06;101091.13;;;16.33;79.56
76762;BME280;65705;51.032;13.790;2023-09-07T03:09:32;101083.66;;;16.37;79.30
76762;BME280;65705;51.032;13.790;2023-09-07T03:11:57;101084.47;;;16.45;78.57
76762;BME280;65705;51.032;13.790;2023-09-07T03:14:23;101089.09;;;16.51;78.28
76762;BME280;65705;51.032;13.790;2023-09-07T03:16:50;101081.00;;;16.45;78.37
76762;BME280;65705;51.032;13.790;2023-09-07T03:19:16;101083.00;;;16.43;78.37
76762;BME280;65705;51.032;13.790;2023-09-07T03:21:43;101079.19;;;16.45;78.55
76762;BME280;65705;51.032;13.790;2023-09-07T03:24:09;101077.88;;;16.33;78.93
76762;BME280;65705;51.032;13.790;2023-09-07T03:26:35;101079.25;;;16.29;79.15
76762;BME280;65705;51.032;13.790;2023-09-07T03:29:01;101073.13;;;16.29;79.43
76762;BME280;65705;51.032;13.790;2023-09-07T03:31:27;101072.28;;;16.28;79.19
76762;BME280;65705;51.032;13.790;2023-09-07T03:33:53;101074.09;;;16.28;79.14
76762;BME280;65705;51.032;13.790;2023-09-07T03:36:18;101079.88;;;16.39;78.44
76762;BME280;65705;51.032;13.790;2023-09-07T03:38:44;101081.06;;;16.29;78.48
76762;BME280;65705;51.032;13.790;2023-09-07T03:41:12;101080.06;;;16.30;78.72
76762;BME280;65705;51.032;13.790;2023-09-07T03:43:38;101083.06;;;16.27;79.10
76762;BME280;65705;51.032;13.790;2023-09-07T03:46:03;101092.69;;;16.20;79.38
76762;BME280;65705;51.032;13.790;2023-09-07T03:48:29;101087.41;;;16.20;79.49
76762;BME280;65705;51.032;13.790;2023-09-07T03:50:55;101087.22;;;16.21;79.12
76762;BME280;65705;51.032;13.790;2023-09-07T03:53:21;101094.72;;;16.10;79.58
76762;BME280;65705;51.032;13.790;2023-09-07T03:55:46;101092.09;;;16.02;80.13
76762;BME280;65705;51.032;13.790;2023-09-07T03:58:15;101097.38;;;16.02;80.28
76762;BME280;65705;51.032;13.790;2023-09-07T04:00:43;101097.50;;;16.08;80.29
76762;BME280;65705;51.032;13.790;2023-09-07T04:03:10;101088.44;;;16.03;80.49
76762;BME280;65705;51.032;13.790;2023-09-07T04:05:38;101092.97;;;15.86;80.80
76762;BME280;65705;51.032;13.790;2023-09-07T04:08:04;101096.63;;;15.77;81.59
76762;BME280;65705;51.032;13.790;2023-09-07T04:10:30;101091.47;;;15.83;81.84
76762;BME280;65705;51.032;13.790;2023-09-07T04:12:56;101098.09;;;15.79;81.71
76762;BME280;65705;51.032;13.790;2023-09-07T04:15:22;101094.94;;;15.84;81.61
76762;BME280;65705;51.032;13.790;2023-09-07T04:17:50;101094.78;;;15.86;81.19
76762;BME280;65705;51.032;13.790;2023-09-07T04:20:16;101100.41;;;15.82;81.35
76762;BME280;65705;51.032;13.790;2023-09-07T04:22:42;101108.00;;;15.77;81.95
76762;BME280;65705;51.032;13.790;2023-09-07T04:25:08;101106.03;;;15.79;82.07
76762;BME280;65705;51.032;13.790;2023-09-07T04:27:34;101094.63;;;15.79;81.78
76762;BME280;65705;51.032;13.790;2023-09-07T04:30:00;101096.41;;;15.87;81.72
76762;BME280;65705;51.032;13.790;2023-09-07T04:32:27;101097.72;;;15.91;81.63
76762;BME280;65705;51.032;13.790;2023-09-07T04:34:56;101101.22;;;15.91;81.35
76762;BME280;65705;51.032;13.790;2023-09-07T04:37:24;101100.56;;;15.97;81.48
76762;BME280;65705;51.032;13.790;2023-09-07T04:39:51;101102.16;;;16.06;80.74
76762;BME280;65705;51.032;13.790;2023-09-07T04:42:18;101106.00;;;16.04;80.76
76762;BME280;65705;51.032;13.790;2023-09-07T04:44:44;101101.31;;;16.14;80.18
76762;BME280;65705;51.032;13.790;2023-09-07T04:47:10;101103.66;;;16.09;80.18
76762;BME280;65705;51.032;13.790;2023-09-07T04:49:36;101105.31;;;16.02;80.63
76762;BME280;65705;51.032;13.790;2023-09-07T04:52:02;101105.31;;;16.02;80.42
76762;BME280;65705;51.032;13.790;2023-09-07T04:54:28;101107.63;;;16.05;80.28
76762;BME280;65705;51.032;13.790;2023-09-07T04:56:53;101105.63;;;16.07;80.20
76762;BME280;65705;51.032;13.790;2023-09-07T04:59:19;101108.63;;;16.04;80.39
76762;BME280;65705;51.032;13.790;2023-09-07T05:01:45;101108.16;;;15.92;81.37
76762;BME280;65705;51.032;13.790;2023-09-07T05:04:11;101104.50;;;16.01;81.02
76762;BME280;65705;51.032;13.790;2023-09-07T05:06:37;101113.09;;;16.11;80.88
76762;BME280;65705;51.032;13.790;2023-09-07T05:09:06;101114.22;;;16.17;80.71
76762;BME280;65705;51.032;13.790;2023-09-07T05:11:32;101115.19;;;16.24;80.52
76762;BME280;65705;51.032;13.790;2023-09-07T05:14:01;101114.19;;;16.33;80.42
76762;BME280;65705;51.032;13.790;2023-09-07T05:16:27;101113.00;;;16.35;80.07
76762;BME280;65705;51.032;13.790;2023-09-07T05:18:53;101116.97;;;16.39;80.09
76762;BME280;65705;51.032;13.790;2023-09-07T05:21:19;101120.75;;;16.45;79.81
76762;BME280;65705;51.032;13.790;2023-09-07T05:23:46;101114.81;;;16.51;79.75
76762;BME280;65705;51.032;13.790;2023-09-07T05:26:12;101119.75;;;16.54;79.34
76762;BME280;65705;51.032;13.790;2023-09-07T05:28:39;101122.22;;;16.55;79.28
76762;BME280;65705;51.032;13.790;2023-09-07T05:31:06;101121.06;;;16.58;79.48
76762;BME280;65705;51.032;13.790;2023-09-07T05:33:32;101127.31;;;16.65;79.28
76762;BME280;65705;51.032;13.790;2023-09-07T05:35:58;101132.41;;;16.74;78.61
76762;BME280;65705;51.032;13.790;2023-09-07T05:38:24;101127.81;;;16.99;77.58
76762;BME280;65705;51.032;13.790;2023-09-07T05:40:50;101129.91;;;17.04;77.15
76762;BME280;65705;51.032;13.790;2023-09-07T05:43:20;101134.84;;;17.07;76.90
76762;BME280;65705;51.032;13.790;2023-09-07T05:45:46;101137.00;;;17.11;76.85
76762;BME280;65705;51.032;13.790;2023-09-07T05:48:13;101135.94;;;17.20;76.20
76762;BME280;65705;51.032;13.790;2023-09-07T05:50:42;101132.22;;;17.29;75.91
76762;BME280;65705;51.032;13.790;2023-09-07T05:53:08;101142.97;;;17.36;75.59
76762;BME280;65705;51.032;13.790;2023-09-07T05:55:34;101141.59;;;17.40;75.59
76762;BME280;65705;51.032;13.790;2023-09-07T05:58:05;101148.22;;;17.44;75.37
76762;BME280;65705;51.032;13.790;2023-09-07T06:00:32;101147.00;;;17.46;75.47
76762;BME280;65705;51.032;13.790;2023-09-07T06:02:59;101148.53;;;17.49;75.53
76762;BME280;65705;51.032;13.790;2023-09-07T06:05:24;101149.00;;;17.52;75.33
76762;BME280;65705;51.032;13.790;2023-09-07T06:07:50;101146.25;;;17.60;75.55
76762;BME280;65705;51.032;13.790;2023-09-07T06:10:16;101150.88;;;17.66;75.01
76762;BME280;65705;51.032;13.790;2023-09-07T06:12:44;101149.78;;;17.75;74.91
76762;BME280;65705;51.032;13.790;2023-09-07T06:15:10;101146.44;;;17.81;74.46
76762;BME280;65705;51.032;13.790;2023-09-07T06:17:36;101148.00;;;17.91;73.79
76762;BME280;65705;51.032;13.790;2023-09-07T06:20:02;101145.63;;;17.96;73.42
76762;BME280;65705;51.032;13.790;2023-09-07T06:22:28;101150.03;;;18.03;72.83
76762;BME280;65705;51.032;13.790;2023-09-07T06:24:54;101154.81;;;18.08;72.85
76762;BME280;65705;51.032;13.790;2023-09-07T06:27:21;101152.41;;;18.13;72.38
76762;BME280;65705;51.032;13.790;2023-09-07T06:29:47;101150.69;;;18.20;71.97
76762;BME280;65705;51.032;13.790;2023-09-07T06:32:13;101150.97;;;18.25;72.08
76762;BME280;65705;51.032;13.790;2023-09-07T06:34:40;101145.28;;;18.28;71.76
76762;BME280;65705;51.032;13.790;2023-09-07T06:37:06;101145.56;;;18.33;71.89
76762;BME280;65705;51.032;13.790;2023-09-07T06:39:32;101157.09;;;18.40;71.74
76762;BME280;65705;51.032;13.790;2023-09-07T06:41:59;101155.19;;;18.48;71.48
76762;BME280;65705;51.032;13.790;2023-09-07T06:44:29;101153.44;;;18.55;71.24
76762;BME280;65705;51.032;13.790;2023-09-07T06:46:55;101156.41;;;18.60;70.89
76762;BME280;65705;51.032;13.790;2023-09-07T06:49:22;101160.16;;;18.66;70.90
76762;BME280;65705;51.032;13.790;2023-09-07T06:51:48;101158.13;;;18.68;70.82
76762;BME280;65705;51.032;13.790;2023-09-07T06:54:14;101156.38;;;18.75;70.67
76762;BME280;65705;51.032;13.790;2023-09-07T06:56:41;101154.34;;;18.77;70.40
76762;BME280;65705;51.032;13.790;2023-09-07T06:59:06;101158.94;;;18.83;70.21
76762;BME280;65705;51.032;13.790;2023-09-07T07:01:32;101154.88;;;18.87;70.51
76762;BME280;65705;51.032;13.790;2023-09-07T07:03:58;101154.31;;;18.91;70.71
76762;BME280;65705;51.032;13.790;2023-09-07T07:06:25;101160.91;;;18.96;70.68
76762;BME280;65705;51.032;13.790;2023-09-07T07:08:52;101166.31;;;19.02;70.30
76762;BME280;65705;51.032;13.790;2023-09-07T07:11:17;101155.94;;;19.07;70.37
76762;BME280;65705;51.032;13.790;2023-09-07T07:13:43;101157.00;;;19.13;70.24
76762;BME280;65705;51.032;13.790;2023-09-07T07:16:10;101157.72;;;19.21;69.82
76762;BME280;65705;51.032;13.790;2023-09-07T07:18:36;101148.97;;;19.27;69.63
76762;BME280;65705;51.032;13.790;2023-09-07T07:21:02;101156.88;;;19.35;69.40
76762;BME280;65705;51.032;13.790;2023-09-07T07:23:28;101150.59;;;19.43;68.90
76762;BME280;65705;51.032;13.790;2023-09-07T07:25:54;101155.59;;;19.52;68.56
76762;BME280;65705;51.032;13.790;2023-09-07T07:28:20;101157.50;;;19.58;68.20
76762;BME280;65705;51.032;13.790;2023-09-07T07:30:46;101152.41;;;19.63;67.90
76762;BME280;65705;51.032;13.790;2023-09-07T07:33:14;101152.50;;;19.70;67.70
76762;BME280;65705;51.032;13.790;2023-09-07T07:35:40;101152.53;;;19.76;67.74
76762;BME280;65705;51.032;13.790;2023-09-07T07:38:06;101155.03;;;19.84;67.48
76762;BME280;65705;51.032;13.790;2023-09-07T07:40:34;101163.91;;;19.91;67.38
76762;BME280;65705;51.032;13.790;2023-09-07T07:43:00;101166.84;;;19.97;67.07
76762;BME280;65705;51.032;13.790;2023-09-07T07:45:26;101158.44;;;20.00;66.97
76762;BME280;65705;51.032;13.790;2023-09-07T07:47:53;101157.84;;;20.04;66.95
76762;BME280;65705;51.032;13.790;2023-09-07T07:50:19;101160.16;;;20.07;66.80
76762;BME280;65705;51.032;13.790;2023-09-07T07:52:45;101156.53;;;20.15;66.28
76762;BME280;65705;51.032;13.790;2023-09-07T07:55:12;101159.88;;;20.23;65.82
76762;BME280;65705;51.032;13.790;2023-09-07T07:57:39;101156.25;;;20.31;65.18
76762;BME280;65705;51.032;13.790;2023-09-07T08:00:06;101154.44;;;20.38;64.82
76762;BME280;65705;51.032;13.790;2023-09-07T08:02:39;101158.78;;;20.45;64.74
76762;BME280;65705;51.032;13.790;2023-09-07T08:05:07;101153.28;;;20.53;64.66
76762;BME280;65705;51.032;13.790;2023-09-07T08:07:34;101151.88;;;20.64;64.14
76762;BME280;65705;51.032;13.790;2023-09-07T08:10:00;101150.91;;;20.71;63.47
76762;BME280;65705;51.032;13.790;2023-09-07T08:12:27;101151.31;;;20.75;63.35
76762;BME280;65705;51.032;13.790;2023-09-07T08:14:54;101150.31;;;20.82;62.62
76762;BME280;65705;51.032;13.790;2023-09-07T08:17:21;101147.47;;;20.90;62.25
76762;BME280;65705;51.032;13.790;2023-09-07T08:19:47;101153.28;;;21.01;61.61
76762;BME280;65705;51.032;13.790;2023-09-07T08:22:15;101149.81;;;21.07;61.40
76762;BME280;65705;51.032;13.790;2023-09-07T08:24:42;101146.97;;;21.15;61.30
76762;BME280;65705;51.032;13.790;2023-09-07T08:27:10;101150.47;;;21.22;61.37
76762;BME280;65705;51.032;13.790;2023-09-07T08:29:38;101150.25;;;21.30;61.33
76762;BME280;65705;51.032;13.790;2023-09-07T08:32:05;101134.25;;;21.36;61.11
76762;BME280;65705;51.032;13.790;2023-09-07T08:34:30;101135.31;;;21.42;60.44
76762;BME280;65705;51.032;13.790;2023-09-07T08:36:56;101138.59;;;21.50;60.18
76762;BME280;65705;51.032;13.790;2023-09-07T08:39:24;101138.19;;;21.60;59.88
76762;BME280;65705;51.032;13.790;2023-09-07T08:41:50;101130.38;;;21.71;59.68
76762;BME280;65705;51.032;13.790;2023-09-07T08:44:17;101130.19;;;21.79;59.42
76762;BME280;65705;51.032;13.790;2023-09-07T08:46:45;101134.50;;;21.87;58.82
76762;BME280;65705;51.032;13.790;2023-09-07T08:49:11;101135.50;;;21.92;58.64
76762;BME280;65705;51.032;13.790;2023-09-07T08:51:38;101141.88;;;21.98;58.24
76762;BME280;65705;51.032;13.790;2023-09-07T08:54:04;101144.97;;;22.08;57.75
76762;BME280;65705;51.032;13.790;2023-09-07T08:56:30;101143.91;;;22.16;57.17
76762;BME280;65705;51.032;13.790;2023-09-07T08:58:57;101135.28;;;22.20;56.57
76762;BME280;65705;51.032;13.790;2023-09-07T09:01:23;101144.72;;;22.29;56.40
76762;BME280;65705;51.032;13.790;2023-09-07T09:03:49;101140.38;;;22.35;56.17
76762;BME280;65705;51.032;13.790;2023-09-07T09:06:20;101148.38;;;22.41;55.78
76762;BME280;65705;51.032;13.790;2023-09-07T09:08:56;101144.25;;;22.45;55.98
76762;BME280;65705;51.032;13.790;2023-09-07T09:11:23;101137.84;;;22.53;55.96
76762;BME280;65705;51.032;13.790;2023-09-07T09:13:51;101134.56;;;22.57;56.06
76762;BME280;65705;51.032;13.790;2023-09-07T09:16:18;101141.75;;;22.63;56.01
76762;BME280;65705;51.032;13.790;2023-09-07T09:18:51;101142.56;;;22.70;56.22
76762;BME280;65705;51.032;13.790;2023-09-07T09:21:21;101145.41;;;22.75;56.16
76762;BME280;65705;51.032;13.790;2023-09-07T09:23:49;101131.97;;;22.82;55.79
76762;BME280;65705;51.032;13.790;2023-09-07T09:26:18;101132.56;;;22.90;55.04
76762;BME280;65705;51.032;13.790;2023-09-07T09:28:44;101128.00;;;22.97;54.86
76762;BME280;65705;51.032;13.790;2023-09-07T09:31:11;101136.59;;;23.06;54.85
76762;BME280;65705;51.032;13.790;2023-09-07T09:33:40;101130.41;;;23.12;54.43
76762;BME280;65705;51.032;13.790;2023-09-07T09:36:07;101141.06;;;23.19;54.17
76762;BME280;65705;51.032;13.790;2023-09-07T09:38:34;101131.94;;;23.26;54.07
76762;BME280;65705;51.032;13.790;2023-09-07T09:41:00;101131.53;;;23.29;53.59
76762;BME280;65705;51.032;13.790;2023-09-07T09:43:26;101134.56;;;23.39;53.67
76762;BME280;65705;51.032;13.790;2023-09-07T09:45:53;101127.72;;;23.43;53.12
76762;BME280;65705;51.032;13.790;2023-09-07T09:48:19;101119.44;;;23.51;52.95
76762;BME280;65705;51.032;13.790;2023-09-07T09:50:49;101121.81;;;23.59;52.48
76762;BME280;65705;51.032;13.790;2023-09-07T09:53:19;101125.88;;;23.68;51.80
76762;BME280;65705;51.032;13.790;2023-09-07T09:55:46;101117.09;;;23.79;51.94
76762;BME280;65705;51.032;13.790;2023-09-07T09:58:13;101125.75;;;23.81;51.94
76762;BME280;65705;51.032;13.790;2023-09-07T10:00:45;101123.22;;;23.86;51.42
76762;BME280;65705;51.032;13.790;2023-09-07T10:05:45;101119.22;;;23.95;50.55
76762;BME280;65705;51.032;13.790;2023-09-07T10:08:15;101116.91;;;23.99;50.25
76762;BME280;65705;51.032;13.790;2023-09-07T10:10:43;101111.97;;;24.02;50.52
76762;BME280;65705;51.032;13.790;2023-09-07T10:13:14;101113.53;;;24.10;50.87
76762;BME280;65705;51.032;13.790;2023-09-07T10:15:40;101116.13;;;24.17;51.01
76762;BME280;65705;51.032;13.790;2023-09-07T10:18:10;101105.22;;;24.18;50.19
76762;BME280;65705;51.032;13.790;2023-09-07T10:20:54;101110.34;;;24.20;50.11
76762;BME280;65705;51.032;13.790;2023-09-07T10:23:22;101104.44;;;24.29;49.29
76762;BME280;65705;51.032;13.790;2023-09-07T10:25:50;101106.00;;;24.37;48.07
76762;BME280;65705;51.032;13.790;2023-09-07T10:28:21;101101.63;;;24.42;47.71
76762;BME280;65705;51.032;13.790;2023-09-07T10:31:04;101107.34;;;24.46;45.54
76762;BME280;65705;51.032;13.790;2023-09-07T10:33:35;101107.06;;;24.54;44.64
76762;BME280;65705;51.032;13.790;2023-09-07T10:36:02;101100.75;;;24.60;44.43
76762;BME280;65705;51.032;13.790;2023-09-07T10:38:30;101095.09;;;24.68;42.67
76762;BME280;65705;51.032;13.790;2023-09-07T10:40:59;101087.69;;;24.70;41.84
76762;BME280;65705;51.032;13.790;2023-09-07T10:43:29;101091.53;;;24.74;42.84
76762;BME280;65705;51.032;13.790;2023-09-07T10:45:56;101084.66;;;24.78;42.89
76762;BME280;65705;51.032;13.790;2023-09-07T10:48:23;101089.97;;;24.84;42.44
76762;BME280;65705;51.032;13.790;2023-09-07T10:50:49;101081.44;;;24.87;41.81
76762;BME280;65705;51.032;13.790;2023-09-07T10:53:31;101086.34;;;24.90;41.08
76762;BME280;65705;51.032;13.790;2023-09-07T10:55:59;101086.47;;;24.95;42.05
76762;BME280;65705;51.032;13.790;2023-09-07T10:58:31;101086.25;;;24.97;41.48
76762;BME280;65705;51.032;13.790;2023-09-07T11:00:58;101084.50;;;25.02;41.66
76762;BME280;65705;51.032;13.790;2023-09-07T11:03:25;101083.81;;;25.07;41.31
76762;BME280;65705;51.032;13.790;2023-09-07T11:05:57;101086.03;;;25.10;41.37
76762;BME280;65705;51.032;13.790;2023-09-07T11:08:24;101089.91;;;25.14;42.33
76762;BME280;65705;51.032;13.790;2023-09-07T11:10:51;101074.38;;;25.16;42.19
76762;BME280;65705;51.032;13.790;2023-09-07T11:13:19;101078.03;;;25.22;41.51
76762;BME280;65705;51.032;13.790;2023-09-07T11:15:45;101075.34;;;25.22;41.43
76762;BME280;65705;51.032;13.790;2023-09-07T11:18:11;101077.56;;;25.25;41.63
76762;BME280;65705;51.032;13.790;2023-09-07T11:20:37;101078.63;;;25.24;42.04
76762;BME280;65705;51.032;13.790;2023-09-07T11:23:05;101078.72;;;25.29;40.84
76762;BME280;65705;51.032;13.790;2023-09-07T11:25:36;101076.41;;;25.32;40.82
76762;BME280;65705;51.032;13.790;2023-09-07T11:28:03;101076.16;;;25.34;40.80
76762;BME280;65705;51.032;13.790;2023-09-07T11:30:29;101073.00;;;25.37;40.99
76762;BME280;65705;51.032;13.790;2023-09-07T11:33:21;101074.56;;;25.44;40.11
76762;BME280;65705;51.032;13.790;2023-09-07T11:35:47;101073.06;;;25.48;40.72
76762;BME280;65705;51.032;13.790;2023-09-07T11:38:14;101066.19;;;25.52;40.60
76762;BME280;65705;51.032;13.790;2023-09-07T11:40:41;101065.34;;;25.52;40.65
76762;BME280;65705;51.032;13.790;2023-09-07T11:43:14;101068.97;;;25.57;40.58
76762;BME280;65705;51.032;13.790;2023-09-07T11:45:41;101068.63;;;25.65;40.99
76762;BME280;65705;51.032;13.790;2023-09-07T11:48:07;101068.28;;;25.73;40.98
76762;BME280;65705;51.032;13.790;2023-09-07T11:50:36;101066.28;;;25.80;40.73
76762;BME280;65705;51.032;13.790;2023-09-07T11:53:02;101062.31;;;25.83;40.80
76762;BME280;65705;51.032;13.790;2023-09-07T11:55:29;101065.34;;;25.86;40.82
76762;BME280;65705;51.032;13.790;2023-09-07T11:57:54;101064.41;;;25.92;41.06
76762;BME280;65705;51.032;13.790;2023-09-07T12:00:23;101068.84;;;25.98;41.31
76762;BME280;65705;51.032;13.790;2023-09-07T12:02:49;101062.38;;;25.99;41.42
76762;BME280;65705;51.032;13.790;2023-09-07T12:05:15;101064.63;;;26.02;40.35
76762;BME280;65705;51.032;13.790;2023-09-07T12:07:42;101058.22;;;26.03;40.84
76762;BME280;65705;51.032;13.790;2023-09-07T12:10:09;101060.22;;;26.08;39.99
76762;BME280;65705;51.032;13.790;2023-09-07T12:12:36;101052.13;;;26.08;39.22
76762;BME280;65705;51.032;13.790;2023-09-07T12:15:02;101051.91;;;26.10;39.11
76762;BME280;65705;51.032;13.790;2023-09-07T12:17:30;101050.13;;;26.15;38.77
76762;BME280;65705;51.032;13.790;2023-09-07T12:19:56;101046.47;;;26.21;38.49
76762;BME280;65705;51.032;13.790;2023-09-07T12:22:22;101041.66;;;26.23;38.54
76762;BME280;65705;51.032;13.790;2023-09-07T12:24:48;101041.41;;;26.25;38.27
76762;BME280;65705;51.032;13.790;2023-09-07T12:27:14;101040.72;;;26.29;38.85
76762;BME280;65705;51.032;13.790;2023-09-07T12:29:40;101039.41;;;26.32;39.04
76762;BME280;65705;51.032;13.790;2023-09-07T12:32:06;101045.97;;;26.36;38.58
76762;BME280;65705;51.032;13.790;2023-09-07T12:34:31;101040.91;;;26.39;38.80
76762;BME280;65705;51.032;13.790;2023-09-07T12:36:57;101038.31;;;26.44;38.95
76762;BME280;65705;51.032;13.790;2023-09-07T12:39:23;101028.22;;;26.51;38.66
76762;BME280;65705;51.032;13.790;2023-09-07T12:41:49;101024.00;;;26.55;38.77
76762;BME280;65705;51.032;13.790;2023-09-07T12:44:14;101026.56;;;26.62;38.03